Time;durP1;ratioP1;P1;durP2;ratioP2;P2;SDS_P1;SDS_P2;PMS_P1;PMS_P2;Temp;Humidity;BMP_temperature;BMP_pressure;BME280_temperature;BME280_humidity;BME280_pressure;Samples;Min_cycle;Max_cycle;Signal;HPM_P1;HPM_P2
2023/10/18 00:03:11;;;;;;;13.20;11.52;;;;;;;6.28;100.00;101282.75;10578074;28;20110;-72
2023/10/18 00:08:11;;;;;;;21.40;13.00;;;;;;;6.22;100.00;101272.63;10579127;28;20032;-73
2023/10/18 00:13:12;;;;;;;18.70;14.18;;;;;;;6.20;100.00;101267.44;10579037;28;20109;-72
2023/10/18 00:18:13;;;;;;;18.63;13.70;;;;;;;6.15;100.00;101261.69;10579761;28;20046;-72
2023/10/18 00:23:13;;;;;;;21.52;14.73;;;;;;;6.12;100.00;101251.25;10579373;28;20066;-74
2023/10/18 00:28:14;;;;;;;19.80;11.77;;;;;;;6.10;100.00;101255.13;10578610;28;20042;-72
2023/10/18 00:33:15;;;;;;;13.88;12.27;;;;;;;6.09;100.00;101270.38;10577977;28;20028;-73
2023/10/18 00:38:18;;;;;;;25.17;14.13;;;;;;;6.06;100.00;101254.56;10577803;28;20108;-72
2023/10/18 00:43:22;;;;;;;18.85;14.52;;;;;;;6.03;100.00;101253.06;10578221;28;20031;-73
2023/10/18 00:48:24;;;;;;;14.88;13.38;;;;;;;5.94;100.00;101256.72;10578371;28;20115;-73
2023/10/18 00:53:25;;;;;;;16.90;14.32;;;;;;;6.00;100.00;101249.84;10577040;28;20030;-72
2023/10/18 00:58:29;;;;;;;19.63;14.65;;;;;;;6.00;100.00;101247.19;10578042;28;20031;-73
2023/10/18 01:03:35;;;;;;;24.23;14.40;;;;;;;6.04;100.00;101240.47;10577187;28;20028;-72
2023/10/18 01:08:38;;;;;;;20.25;15.23;;;;;;;6.04;100.00;101232.41;10577560;28;20092;-73
2023/10/18 01:13:41;;;;;;;19.63;14.40;;;;;;;6.09;100.00;101227.38;10583371;28;20444;-72
2023/10/18 01:18:52;;;;;;;25.95;14.07;;;;;;;6.06;100.00;101219.63;10584404;28;20029;-73
2023/10/18 01:23:54;;;;;;;16.05;12.73;;;;;;;6.09;100.00;101216.63;10569417;28;20031;-72
2023/10/18 01:28:56;;;;;;;12.25;10.05;;;;;;;6.09;100.00;101208.53;10583980;28;20046;-73
2023/10/18 01:33:56;;;;;;;14.13;12.40;;;;;;;6.13;100.00;101198.34;10566194;28;20028;-72
2023/10/18 01:38:57;;;;;;;13.13;11.02;;;;;;;6.07;100.00;101197.13;10585749;28;20402;-72
2023/10/18 01:44:05;;;;;;;12.38;9.07;;;;;;;6.08;100.00;101185.38;10584977;28;20067;-73
2023/10/18 01:49:06;;;;;;;14.55;12.30;;;;;;;6.07;100.00;101164.03;10585038;28;20443;-72
2023/10/18 01:54:12;;;;;;;14.77;11.82;;;;;;;6.07;100.00;101159.50;10582976;28;20124;-72
2023/10/18 01:59:14;;;;;;;15.53;10.53;;;;;;;6.08;100.00;101171.91;10584044;28;20370;-72
2023/10/18 02:04:24;;;;;;;15.52;11.90;;;;;;;6.11;100.00;101155.47;10584284;28;20068;-73
2023/10/18 02:09:31;;;;;;;11.30;10.13;;;;;;;6.11;100.00;101152.78;10583684;28;20412;-73
2023/10/18 02:14:33;;;;;;;13.70;11.95;;;;;;;6.17;100.00;101149.44;10582887;28;20059;-72
2023/10/18 02:19:37;;;;;;;13.55;12.15;;;;;;;6.14;100.00;101141.69;10581157;28;20032;-72
2023/10/18 02:24:38;;;;;;;15.45;10.82;;;;;;;6.20;100.00;101129.47;10565103;28;20081;-72
2023/10/18 02:29:39;;;;;;;21.98;11.82;;;;;;;6.23;100.00;101127.28;10581514;28;20024;-72
2023/10/18 02:34:41;;;;;;;12.02;10.45;;;;;;;6.24;100.00;101118.19;10583246;28;20058;-72
2023/10/18 02:39:42;;;;;;;13.85;9.98;;;;;;;6.26;100.00;101135.03;10581354;28;20060;-73
2023/10/18 02:44:44;;;;;;;12.68;9.88;;;;;;;6.24;100.00;101118.19;10582615;28;20482;-73
2023/10/18 02:49:51;;;;;;;16.65;9.57;;;;;;;6.24;100.00;101112.81;10582971;28;20110;-72
2023/10/18 02:54:51;;;;;;;;;;;;;;;6.21;100.00;101099.69;10582729;28;20031;-72
2023/10/18 02:59:52;;;;;;;16.25;11.07;;;;;;;6.22;100.00;101096.03;10581863;28;19920;-72
2023/10/18 03:04:53;;;;;;;11.45;9.88;;;;;;;6.16;100.00;101080.53;10579538;28;20031;-72
2023/10/18 03:09:53;;;;;;;13.88;10.45;;;;;;;6.17;100.00;101071.47;10580484;28;20465;-72
2023/10/18 03:14:54;;;;;;;17.10;9.35;;;;;;;6.22;100.00;101077.19;10579622;28;20043;-72
2023/10/18 03:19:55;;;;;;;12.43;10.07;;;;;;;6.20;100.00;101056.84;10579605;28;20067;-73
2023/10/18 03:24:58;;;;;;;19.20;10.40;;;;;;;6.26;100.00;101058.88;10579407;28;20581;-72
2023/10/18 03:30:09;;;;;;;9.35;7.88;;;;;;;6.18;100.00;101040.88;10562484;28;20020;-72
2023/10/18 03:35:10;;;;;;;9.60;8.65;;;;;;;6.22;100.00;101036.88;10579451;28;20470;-72
2023/10/18 03:40:17;;;;;;;12.60;9.75;;;;;;;6.21;100.00;101026.25;10561864;28;20051;-72
2023/10/18 03:45:21;;;;;;;10.90;8.15;;;;;;;6.24;100.00;101016.00;10581347;28;20035;-72
2023/10/18 03:50:28;;;;;;;13.70;10.43;;;;;;;6.28;100.00;101017.34;10579211;28;20472;-72
2023/10/18 03:55:37;;;;;;;;;;;;;;;6.28;100.00;101006.59;10581124;28;20035;-72
2023/10/18 04:00:46;;;;;;;11.18;9.07;;;;;;;6.21;100.00;101027.09;10579409;28;19955;-72
2023/10/18 04:05:49;;;;;;;9.75;8.68;;;;;;;6.30;100.00;101022.56;10578616;28;20036;-72
2023/10/18 04:10:59;;;;;;;13.15;8.43;;;;;;;6.24;100.00;101010.63;10579030;28;20126;-73
2023/10/18 04:16:03;;;;;;;13.90;9.30;;;;;;;6.24;100.00;101002.56;10577410;28;20036;-72
2023/10/18 04:21:14;;;;;;;13.25;10.25;;;;;;;6.25;100.00;100990.81;10577454;28;20073;-72
2023/10/18 04:26:18;;;;;;;8.75;7.82;;;;;;;6.29;100.00;100986.78;10561773;28;20031;-72
2023/10/18 04:31:21;;;;;;;9.23;7.45;;;;;;;6.24;100.00;100981.06;10578090;28;20042;-72
2023/10/18 04:36:22;;;;;;;10.18;7.78;;;;;;;6.28;100.00;100982.38;10576489;28;20158;-72
2023/10/18 04:46:26;;;;;;;14.65;7.80;;;;;;;6.25;100.00;100958.56;10581063;28;20032;-72
2023/10/18 04:51:26;;;;;;;7.75;7.00;;;;;;;6.28;100.00;100944.75;10585698;28;20083;-72
2023/10/18 04:56:44;;;;;;;8.52;7.25;;;;;;;6.22;100.00;100942.75;10585581;28;20119;-72
2023/10/18 05:06:59;;;;;;;12.27;8.88;;;;;;;6.24;100.00;100921.06;10586147;28;20039;-72
2023/10/18 05:17:21;;;;;;;11.35;7.75;;;;;;;6.26;100.00;100917.19;10570576;28;20467;-72
2023/10/18 05:22:25;;;;;;;10.13;8.80;;;;;;;6.15;100.00;100900.56;10583585;28;20553;-71
2023/10/18 05:27:27;;;;;;;10.75;9.38;;;;;;;6.17;100.00;100891.31;10567171;28;20046;-72
2023/10/18 05:37:32;;;;;;;13.30;8.57;;;;;;;6.16;100.00;100892.34;10582905;28;20064;-71
2023/10/18 05:42:35;;;;;;;10.23;8.55;;;;;;;6.18;100.00;100884.91;10584301;28;20122;-72
2023/10/18 05:47:37;;;;;;;7.78;6.72;;;;;;;6.13;100.00;100883.78;10583345;28;20044;-72
2023/10/18 05:52:37;;;;;;;10.90;9.65;;;;;;;6.11;100.00;100877.72;10584830;28;20126;-72
2023/10/18 05:57:38;;;;;;;11.15;9.98;;;;;;;6.13;100.00;100873.00;10581707;28;20054;-72
2023/10/18 06:02:38;;;;;;;9.18;7.68;;;;;;;6.09;100.00;100869.78;10584242;28;20466;-72
2023/10/18 06:07:39;;;;;;;8.77;7.97;;;;;;;6.03;100.00;100852.50;10583501;28;20043;-72
2023/10/18 06:12:48;;;;;;;11.45;9.63;;;;;;;6.10;100.00;100858.06;10581738;28;20040;-72
2023/10/18 06:17:53;;;;;;;12.23;9.70;;;;;;;6.08;100.00;100862.75;10583233;28;20038;-71
2023/10/18 06:23:08;;;;;;;9.18;8.27;;;;;;;6.13;100.00;100844.28;10582378;28;20040;-72
2023/10/18 06:28:09;;;;;;;8.93;8.02;;;;;;;6.17;100.00;100834.84;10569200;27;20069;-72
2023/10/18 06:33:12;;;;;;;12.80;8.88;;;;;;;6.27;100.00;100822.06;10581427;28;20087;-72
2023/10/18 06:38:17;;;;;;;17.17;9.68;;;;;;;6.36;100.00;100820.19;10582799;27;20083;-71
2023/10/18 06:43:20;;;;;;;14.30;9.55;;;;;;;6.41;100.00;100819.66;10600073;27;20074;-72
2023/10/18 06:48:22;;;;;;;9.15;7.32;;;;;;;6.48;100.00;100812.59;10582400;28;20093;-72
2023/10/18 06:53:22;;;;;;;7.85;7.15;;;;;;;6.60;100.00;100813.03;10565062;28;20024;-72
2023/10/18 07:03:27;;;;;;;9.40;6.70;;;;;;;6.91;100.00;100805.84;10564777;28;20055;-71
2023/10/18 07:08:34;;;;;;;9.18;8.27;;;;;;;6.94;100.00;100791.22;10596019;27;20046;-72
2023/10/18 07:13:38;;;;;;;10.50;9.60;;;;;;;7.02;100.00;100790.31;10579848;28;20558;-71
2023/10/18 07:18:39;;;;;;;8.90;7.32;;;;;;;7.12;100.00;100788.25;10580365;28;20108;-72
2023/10/18 07:23:40;;;;;;;7.70;7.00;;;;;;;7.14;100.00;100788.91;10581358;28;20055;-72
2023/10/18 07:28:40;;;;;;;10.73;7.28;;;;;;;7.18;100.00;100788.38;10580295;28;20059;-72
2023/10/18 07:33:41;;;;;;;10.75;7.60;;;;;;;7.32;100.00;100773.28;10579499;27;20160;-72
2023/10/18 07:38:47;;;;;;;7.35;6.68;;;;;;;7.42;100.00;100771.19;10579313;27;20062;-72
2023/10/18 07:43:47;;;;;;;11.90;7.20;;;;;;;7.50;100.00;100770.31;10578265;28;20053;-71
2023/10/18 07:48:48;;;;;;;7.70;5.88;;;;;;;7.65;100.00;100755.00;10579177;28;20054;-72
2023/10/18 07:53:53;;;;;;;6.40;5.15;;;;;;;8.04;100.00;100740.50;10594865;27;20063;-72
2023/10/18 07:58:54;;;;;;;8.18;7.30;;;;;;;8.61;100.00;100736.28;10577907;28;20538;-72
2023/10/18 08:03:55;;;;;;;9.05;6.57;;;;;;;8.80;100.00;100724.06;10578780;28;20110;-72
2023/10/18 08:08:56;;;;;;;11.20;5.72;;;;;;;8.93;100.00;100723.38;10579784;28;20118;-72
2023/10/18 08:13:56;;;;;;;8.68;5.78;;;;;;;9.02;100.00;100724.94;10578813;27;20131;-72
2023/10/18 08:18:57;;;;;;;7.68;6.97;;;;;;;9.03;100.00;100746.38;10593984;27;20027;-72
2023/10/18 08:23:57;;;;;;;7.53;6.68;;;;;;;8.86;100.00;100709.81;10577217;28;20112;-72
2023/10/18 08:28:59;;;;;;;8.38;7.30;;;;;;;8.79;100.00;100690.81;10576945;28;20032;-72
2023/10/18 08:34:05;;;;;;;9.77;6.90;;;;;;;8.89;100.00;100698.63;10576753;28;20070;-72
2023/10/18 08:39:08;;;;;;;8.17;5.50;;;;;;;8.80;100.00;100675.47;10576161;28;20083;-72
2023/10/18 08:44:16;;;;;;;6.03;5.53;;;;;;;8.96;100.00;100680.59;10593245;28;20188;-72
2023/10/18 08:49:17;;;;;;;11.93;6.78;;;;;;;9.03;100.00;100675.28;10560978;28;20036;-72
2023/10/18 08:54:18;;;;;;;6.90;6.30;;;;;;;8.99;100.00;100664.03;10575981;28;20077;-72
2023/10/18 08:59:18;;;;;;;6.15;5.55;;;;;;;9.11;100.00;100660.81;10559348;28;20112;-72
2023/10/18 09:04:19;;;;;;;8.23;6.35;;;;;;;9.36;100.00;100647.75;10575437;28;20054;-71
2023/10/18 09:09:21;;;;;;;12.02;6.78;;;;;;;9.31;100.00;100634.78;10576689;28;20043;-72
2023/10/18 09:14:22;;;;;;;9.38;6.60;;;;;;;9.40;100.00;100641.72;10575916;28;20031;-72
2023/10/18 09:19:27;;;;;;;7.63;6.82;;;;;;;9.47;100.00;100623.69;10576506;28;20086;-72
2023/10/18 09:24:30;;;;;;;8.55;5.95;;;;;;;9.59;100.00;100612.34;10577015;28;20024;-72
2023/10/18 09:29:30;;;;;;;8.00;6.78;;;;;;;10.07;100.00;100618.63;10577799;28;20036;-72
2023/10/18 09:34:33;;;;;;;8.02;6.40;;;;;;;10.43;100.00;100594.06;10579947;28;20024;-72
2023/10/18 09:39:37;;;;;;;9.73;7.00;;;;;;;10.74;100.00;100579.09;10584009;28;20047;-72
2023/10/18 09:44:41;;;;;;;7.30;6.05;;;;;;;10.89;100.00;100558.06;10584386;28;20419;-72
2023/10/18 09:49:41;;;;;;;10.25;6.72;;;;;;;11.13;100.00;100559.31;10584103;27;20047;-72
2023/10/18 09:54:51;;;;;;;10.25;5.80;;;;;;;11.40;100.00;100541.13;10583934;27;20073;-72
2023/10/18 09:59:55;;;;;;;10.93;6.82;;;;;;;12.06;96.42;100545.56;10566980;28;20044;-72
2023/10/18 10:05:04;;;;;;;11.02;6.68;;;;;;;11.81;95.13;100541.88;10583995;28;20036;-72
2023/10/18 10:10:10;;;;;;;6.03;4.88;;;;;;;11.61;94.88;100503.94;10582395;28;20043;-72
2023/10/18 10:15:17;;;;;;;8.75;6.03;;;;;;;11.35;98.83;100502.16;10583366;27;20135;-72
2023/10/18 10:20:21;;;;;;;6.15;5.53;;;;;;;11.29;98.25;100509.25;10581559;28;20024;-72
2023/10/18 10:25:31;;;;;;;12.35;5.63;;;;;;;11.60;100.00;100499.56;10565907;28;20035;-72
2023/10/18 10:30:34;;;;;;;7.50;5.25;;;;;;;11.51;98.81;100487.28;10582058;28;20428;-72
2023/10/18 10:35:44;;;;;;;7.95;5.28;;;;;;;11.72;97.62;100467.19;10580082;28;20125;-72
2023/10/18 10:40:49;;;;;;;7.93;6.13;;;;;;;11.84;93.44;100457.34;10580848;28;20071;-72
2023/10/18 10:51:08;;;;;;;7.15;5.50;;;;;;;12.55;91.36;100429.09;10580537;28;20391;-72
2023/10/18 10:56:19;;;;;;;5.97;5.38;;;;;;;12.94;85.89;100443.38;10580752;28;20035;-72
2023/10/18 11:01:31;;;;;;;10.93;6.30;;;;;;;12.89;88.79;100433.19;10580547;28;20343;-72
2023/10/18 11:06:32;;;;;;;5.72;5.15;;;;;;;12.94;85.44;100399.88;10580452;28;20028;-72
2023/10/18 11:11:34;;;;;;;6.85;5.78;;;;;;;13.04;83.96;100392.88;10580391;28;20423;-72
2023/10/18 11:16:36;;;;;;;12.02;6.53;;;;;;;12.97;83.13;100378.53;10562090;28;20184;-71
2023/10/18 11:21:38;;;;;;;6.00;5.50;;;;;;;12.86;86.31;100378.44;10580398;28;20100;-72
2023/10/18 11:26:41;;;;;;;6.63;5.80;;;;;;;13.22;84.54;100353.97;10562097;28;20024;-73
2023/10/18 11:31:44;;;;;;;8.35;5.97;;;;;;;12.89;86.28;100332.63;10578898;28;20180;-72
2023/10/18 11:36:45;;;;;;;5.22;4.72;;;;;;;13.01;89.38;100329.97;10579734;28;20102;-72
2023/10/18 11:41:48;;;;;;;8.27;5.90;;;;;;;13.51;81.87;100326.25;10578399;28;20519;-72
2023/10/18 11:46:51;;;;;;;6.63;5.50;;;;;;;13.47;84.07;100309.56;10580178;28;20036;-73
2023/10/18 11:51:51;;;;;;;6.13;5.30;;;;;;;13.61;84.80;100289.25;10578504;28;20176;-72
2023/10/18 11:56:51;;;;;;;5.82;5.05;;;;;;;13.79;82.41;100291.06;10578501;28;20042;-72
2023/10/18 12:01:57;;;;;;;6.45;4.63;;;;;;;13.76;84.01;100282.53;10577309;28;20032;-73
2023/10/18 12:06:58;;;;;;;7.88;6.13;;;;;;;13.62;88.38;100268.31;10577467;28;20076;-73
2023/10/18 12:12:04;;;;;;;6.38;5.72;;;;;;;13.79;84.40;100258.41;10578555;28;20459;-72
2023/10/18 12:17:05;;;;;;;8.02;5.97;;;;;;;13.81;85.84;100256.25;10578346;28;20047;-72
2023/10/18 12:22:07;;;;;;;9.15;5.55;;;;;;;13.96;84.91;100226.69;10578011;28;20036;-72
2023/10/18 12:32:43;;;;;;;6.25;5.57;;;;;;;14.30;84.45;100221.50;10565804;28;20055;-73
2023/10/18 12:37:43;;;;;;;6.40;5.80;;;;;;;14.52;80.38;100208.09;10593841;28;20054;-72
2023/10/18 12:42:43;;;;;;;6.18;5.57;;;;;;;14.14;82.80;100189.53;10578522;28;20098;-72
2023/10/18 12:47:47;;;;;;;6.40;5.90;;;;;;;13.96;83.62;100183.16;10560597;28;20063;-72
2023/10/18 12:52:52;;;;;;;7.57;5.75;;;;;;;13.64;88.72;100152.75;10577091;28;20094;-72
2023/10/18 12:57:54;;;;;;;6.18;5.63;;;;;;;13.48;90.54;100134.41;10576944;28;20032;-72
2023/10/18 13:08:02;;;;;;;6.47;5.90;;;;;;;13.69;91.11;100125.66;10579543;28;20492;-72
2023/10/18 13:13:07;;;;;;;8.15;6.18;;;;;;;13.77;90.94;100119.03;10584377;28;20036;-72
2023/10/18 13:18:09;;;;;;;6.22;5.30;;;;;;;13.84;90.98;100095.22;10585481;28;20068;-73
2023/10/18 13:23:18;;;;;;;7.95;7.25;;;;;;;13.83;91.74;100109.09;10587729;28;20427;-73
2023/10/18 13:28:32;;;;;;;12.95;7.05;;;;;;;14.03;90.21;100082.28;10601390;27;20038;-72
2023/10/18 13:33:36;;;;;;;8.85;6.55;;;;;;;13.95;92.08;100045.41;10583717;28;20087;-73
2023/10/18 13:38:36;;;;;;;5.65;4.75;;;;;;;13.93;92.15;100055.69;10583524;28;20047;-72
2023/10/18 13:43:36;;;;;;;8.05;6.45;;;;;;;14.09;90.52;100034.22;10585247;28;20491;-72
2023/10/18 13:48:38;;;;;;;10.38;6.30;;;;;;;14.29;91.70;100014.72;10585187;28;20024;-72
2023/10/18 13:53:41;;;;;;;5.28;4.80;;;;;;;14.47;89.72;100006.34;10584739;28;20027;-73
2023/10/18 13:58:42;;;;;;;8.20;5.57;;;;;;;14.39;89.22;99995.88;10565298;28;20046;-72
2023/10/18 14:03:44;;;;;;;7.20;6.53;;;;;;;14.29;90.49;99988.31;10583486;27;20127;-73
2023/10/18 14:08:44;;;;;;;5.97;5.38;;;;;;;13.92;93.52;99975.13;10582771;28;20138;-72
2023/10/18 14:13:46;;;;;;;9.10;5.90;;;;;;;13.73;92.92;99979.91;10581699;28;20043;-72
2023/10/18 14:18:51;;;;;;;7.13;5.90;;;;;;;13.67;95.31;99959.09;10581640;28;20032;-72
2023/10/18 14:23:59;;;;;;;12.45;6.25;;;;;;;13.63;96.43;99951.69;10583576;27;20024;-72
2023/10/18 14:29:02;;;;;;;8.45;6.55;;;;;;;13.47;96.43;99945.09;10582120;28;20394;-72
2023/10/18 14:34:03;;;;;;;6.72;4.85;;;;;;;13.41;97.77;99935.16;10580902;28;20086;-72
2023/10/18 14:39:03;;;;;;;10.93;7.25;;;;;;;13.35;100.00;99931.50;10564353;28;20086;-72
2023/10/18 14:44:07;;;;;;;10.18;7.15;;;;;;;13.35;99.81;99912.47;10582166;28;20552;-72
2023/10/18 14:49:08;;;;;;;6.32;5.78;;;;;;;13.30;98.34;99887.06;10582224;28;20071;-71
2023/10/18 14:54:08;;;;;;;9.00;6.65;;;;;;;13.22;97.29;99886.34;10581292;28;20097;-72
2023/10/18 14:59:09;;;;;;;10.73;7.78;;;;;;;13.16;98.01;99900.88;10579996;28;20063;-72
2023/10/18 15:04:09;;;;;;;13.45;7.00;;;;;;;13.16;97.25;99883.75;10579364;28;20512;-72
2023/10/18 15:09:10;;;;;;;6.22;4.97;;;;;;;13.10;96.94;99866.50;10596149;27;20188;-72
2023/10/18 15:14:11;;;;;;;9.73;6.07;;;;;;;13.14;97.32;99847.81;10579705;28;20481;-72
2023/10/18 15:19:15;;;;;;;28.38;8.40;;;;;;;13.08;96.84;99868.66;10581301;28;20456;-72
2023/10/18 15:24:15;;;;;;;11.15;5.88;;;;;;;13.01;98.44;99860.59;10579054;28;20100;-72
2023/10/18 15:29:18;;;;;;;13.23;6.07;;;;;;;13.04;98.34;99859.31;10581298;28;20120;-73
2023/10/18 15:34:18;;;;;;;21.10;6.90;;;;;;;12.86;97.80;99837.72;10596607;27;20523;-73
2023/10/18 15:39:19;;;;;;;7.07;5.68;;;;;;;12.76;97.99;99841.88;10562359;28;20109;-72
2023/10/18 15:44:21;;;;;;;17.77;6.28;;;;;;;12.76;99.04;99824.72;10580032;28;20032;-72
2023/10/18 15:49:22;;;;;;;6.00;5.35;;;;;;;12.72;99.40;99812.69;10579463;28;20063;-72
2023/10/18 15:54:23;;;;;;;8.90;7.18;;;;;;;12.69;99.09;99808.56;10578372;28;20019;-72
2023/10/18 15:59:23;;;;;;;11.70;6.85;;;;;;;12.68;98.63;99798.78;10580519;28;20043;-72
2023/10/18 16:04:23;;;;;;;11.13;5.70;;;;;;;12.66;98.57;99775.63;10580681;28;20039;-72
2023/10/18 16:09:27;;;;;;;15.50;7.25;;;;;;;12.62;98.77;99779.88;10597526;27;20046;-72
2023/10/18 16:14:28;;;;;;;7.85;5.35;;;;;;;12.59;98.51;99769.50;10580031;28;20027;-72
2023/10/18 16:19:30;;;;;;;6.13;5.07;;;;;;;12.52;98.55;99745.19;10580712;28;20106;-72
2023/10/18 16:24:30;;;;;;;5.93;5.47;;;;;;;12.44;98.98;99740.13;10577670;28;20111;-72
2023/10/18 16:29:30;;;;;;;6.85;4.78;;;;;;;12.33;100.00;99739.88;10579509;28;20133;-72
2023/10/18 16:34:31;;;;;;;6.65;5.57;;;;;;;12.26;100.00;99755.47;10577221;28;20034;-72
2023/10/18 16:39:31;;;;;;;6.57;5.65;;;;;;;12.24;100.00;99737.78;10579446;28;20079;-73
2023/10/18 16:44:32;;;;;;;6.30;5.63;;;;;;;12.26;100.00;99750.06;10583875;28;20378;-72
2023/10/18 16:49:32;;;;;;;5.35;4.85;;;;;;;12.20;100.00;99729.28;10586878;28;20445;-72
2023/10/18 16:54:35;;;;;;;4.28;3.88;;;;;;;12.21;100.00;99721.97;10587339;28;20110;-72
2023/10/18 16:59:38;;;;;;;5.57;4.72;;;;;;;12.22;100.00;99727.16;10587179;28;20417;-72
2023/10/18 17:04:38;;;;;;;7.07;4.75;;;;;;;12.26;99.97;99724.81;10587171;28;20024;-73
2023/10/18 17:09:40;;;;;;;7.78;4.90;;;;;;;12.23;99.97;99734.25;10586571;28;20032;-72
2023/10/18 17:14:40;;;;;;;5.50;4.40;;;;;;;12.26;99.01;99728.34;10586848;28;20032;-72
2023/10/18 17:19:41;;;;;;;7.38;4.95;;;;;;;12.24;98.55;99699.78;10602861;27;20572;-72
2023/10/18 17:24:41;;;;;;;5.20;4.80;;;;;;;12.20;98.37;99707.56;10586520;28;20028;-72
2023/10/18 17:29:42;;;;;;;7.25;4.82;;;;;;;12.14;99.15;99686.00;10584842;28;20031;-71
2023/10/18 17:34:43;;;;;;;13.48;4.43;;;;;;;12.20;99.62;99683.16;10584861;28;20467;-72
2023/10/18 17:39:43;;;;;;;9.98;4.88;;;;;;;12.16;99.61;99689.31;10585735;28;20062;-72
2023/10/18 17:44:43;;;;;;;8.50;5.03;;;;;;;12.14;99.63;99662.38;10584662;28;20127;-72
2023/10/18 17:49:45;;;;;;;5.53;4.13;;;;;;;12.06;99.99;99646.44;10585131;28;20044;-72
2023/10/18 17:54:45;;;;;;;5.32;4.82;;;;;;;12.08;100.00;99633.47;10584768;28;20035;-72
2023/10/18 17:59:47;;;;;;;5.05;4.57;;;;;;;12.03;100.00;99633.41;10583441;28;20131;-72
2023/10/18 18:04:49;;;;;;;5.75;3.90;;;;;;;11.95;100.00;99623.72;10584441;28;20024;-72
2023/10/18 18:09:50;;;;;;;6.15;4.72;;;;;;;12.00;100.00;99612.97;10566057;28;20520;-72
2023/10/18 18:14:50;;;;;;;5.72;4.88;;;;;;;12.02;100.00;99607.31;10584534;28;20038;-72
2023/10/18 18:19:51;;;;;;;13.13;4.65;;;;;;;12.12;100.00;99595.84;10584057;28;20039;-72
2023/10/18 18:24:51;;;;;;;4.95;3.97;;;;;;;12.09;100.00;99589.84;10584227;28;20030;-72
2023/10/18 18:29:52;;;;;;;5.07;4.55;;;;;;;12.08;100.00;99582.75;10549204;28;20149;-72
2023/10/18 18:34:53;;;;;;;6.93;4.60;;;;;;;11.89;100.00;99564.97;10583949;28;20027;-72
2023/10/18 18:39:54;;;;;;;6.70;4.10;;;;;;;11.77;100.00;99561.44;10584648;28;20055;-72
2023/10/18 18:44:54;;;;;;;6.00;5.47;;;;;;;11.56;100.00;99552.84;10583046;28;20074;-72
2023/10/18 18:49:54;;;;;;;10.70;5.28;;;;;;;11.14;100.00;99552.16;10582640;28;20046;-72
2023/10/18 18:54:55;;;;;;;6.78;5.85;;;;;;;10.52;100.00;99516.47;10598823;27;20038;-72
2023/10/18 18:59:55;;;;;;;5.40;4.93;;;;;;;10.25;100.00;99506.00;10583866;28;20040;-73
2023/10/18 19:04:56;;;;;;;6.10;5.55;;;;;;;10.19;100.00;99512.31;10583075;28;20115;-75
2023/10/18 19:09:56;;;;;;;7.03;6.22;;;;;;;10.05;100.00;99500.00;10582096;28;20058;-73
2023/10/18 19:14:59;;;;;;;8.50;6.30;;;;;;;9.86;100.00;99475.72;10581499;28;20127;-72
2023/10/18 19:19:59;;;;;;;8.10;6.68;;;;;;;9.77;100.00;99459.00;10584110;28;20089;-74
2023/10/18 19:25:00;;;;;;;7.25;6.32;;;;;;;9.76;100.00;99470.00;10597069;27;20090;-74
2023/10/18 19:30:05;;;;;;;11.57;6.68;;;;;;;9.69;100.00;99461.16;10579365;28;20138;-73
2023/10/18 19:35:09;;;;;;;17.00;8.25;;;;;;;9.68;100.00;99449.53;10577995;28;20058;-75
2023/10/18 19:40:11;;;;;;;1.02;1.02;;;;;;;9.68;100.00;99427.91;10577967;28;20048;-75
2023/10/18 19:45:15;;;;;;;0.57;0.57;;;;;;;9.55;100.00;99422.69;10578922;28;20051;-74
2023/10/18 19:50:16;;;;;;;0.50;0.50;;;;;;;9.46;100.00;99432.13;10579720;28;20035;-74
2023/10/18 19:55:16;;;;;;;0.50;0.50;;;;;;;9.45;100.00;99400.78;10579134;28;20032;-74
2023/10/18 20:00:17;;;;;;;1.60;1.58;;;;;;;9.38;100.00;99405.41;10579717;28;20416;-74
2023/10/18 20:05:18;;;;;;;0.85;0.85;;;;;;;9.36;100.00;99394.84;10580401;28;20462;-74
2023/10/18 20:10:18;;;;;;;0.50;0.50;;;;;;;9.35;100.00;99414.81;10580497;28;20150;-75
2023/10/18 20:15:20;;;;;;;0.55;0.55;;;;;;;9.42;100.00;99385.03;10576960;28;20032;-75
2023/10/18 20:20:20;;;;;;;0.50;0.50;;;;;;;9.41;100.00;99373.41;10577829;28;20570;-74
2023/10/18 20:25:21;;;;;;;2.10;2.00;;;;;;;9.49;100.00;99380.34;10577642;28;20169;-75
2023/10/18 20:30:21;;;;;;;0.95;0.95;;;;;;;9.54;100.00;99383.22;10577877;28;20111;-74
2023/10/18 20:35:22;;;;;;;1.58;1.58;;;;;;;9.48;100.00;99366.03;10576938;28;20348;-75
2023/10/18 20:40:22;;;;;;;0.70;0.70;;;;;;;9.51;100.00;99341.25;10576823;28;20391;-75
2023/10/18 20:45:28;;;;;;;0.60;0.60;;;;;;;9.47;100.00;99334.63;10576612;28;20062;-74
2023/10/18 20:50:32;;;;;;;0.80;0.80;;;;;;;9.47;100.00;99339.22;10576593;28;20039;-75
2023/10/18 20:55:32;;;;;;;0.63;0.63;;;;;;;9.57;100.00;99334.06;10593304;28;20034;-75
2023/10/18 21:00:36;;;;;;;0.85;0.85;;;;;;;9.52;100.00;99328.56;10594976;28;20036;-74
2023/10/18 21:05:39;;;;;;;0.43;0.43;;;;;;;9.53;100.00;99320.22;10577154;28;20084;-74
2023/10/18 21:10:40;;;;;;;3.05;2.85;;;;;;;9.63;100.00;99314.25;10577783;28;20031;-73
2023/10/18 21:15:42;;;;;;;1.05;1.05;;;;;;;9.70;100.00;99296.06;10577518;28;20074;-72
2023/10/18 21:20:42;;;;;;;2.88;2.78;;;;;;;9.77;100.00;99290.56;10577330;28;20355;-77
2023/10/18 21:25:42;;;;;;;0.60;0.60;;;;;;;9.77;100.00;99272.47;10577873;28;20036;-75
2023/10/18 21:30:43;;;;;;;5.78;1.27;;;;;;;9.87;100.00;99276.47;10582013;28;20028;-74
2023/10/18 21:35:45;;;;;;;0.65;0.65;;;;;;;9.92;100.00;99271.16;10599936;27;20479;-74
2023/10/18 21:40:46;;;;;;;0.73;0.73;;;;;;;9.97;100.00;99250.50;10583797;28;20043;-73
2023/10/18 21:45:46;;;;;;;0.70;0.70;;;;;;;10.09;100.00;99238.88;10585281;28;20028;-74
2023/10/18 21:50:57;;;;;;;0.45;0.45;;;;;;;10.13;100.00;99223.81;10583128;28;20035;-74
2023/10/18 21:55:58;;;;;;;2.20;2.10;;;;;;;10.23;100.00;99226.75;10566584;28;20115;-75
2023/10/18 22:01:08;;;;;;;0.55;0.55;;;;;;;10.38;100.00;99215.47;10585271;28;20023;-74
2023/10/18 22:06:08;;;;;;;0.80;0.80;;;;;;;10.46;100.00;99199.72;10583835;28;20047;-74
2023/10/18 22:11:09;;;;;;;0.50;0.50;;;;;;;10.56;100.00;99206.38;10584556;28;20035;-75
2023/10/18 22:16:11;;;;;;;0.55;0.55;;;;;;;10.59;100.00;99189.66;10583397;28;20493;-75
2023/10/18 22:21:14;;;;;;;0.40;0.40;;;;;;;10.61;100.00;99192.94;10581981;28;20059;-74
2023/10/18 22:26:20;;;;;;;0.90;0.90;;;;;;;10.72;100.00;99186.69;10581780;28;20059;-74
2023/10/18 22:31:21;;;;;;;0.67;0.67;;;;;;;10.81;100.00;99179.00;10583247;28;20084;-76
2023/10/18 22:36:22;;;;;;;1.58;1.58;;;;;;;10.88;100.00;99166.13;10584708;28;20525;-75
2023/10/18 22:41:32;;;;;;;1.27;1.20;;;;;;;10.91;100.00;99162.94;10597844;27;20112;-75
2023/10/18 22:46:32;;;;;;;0.88;0.88;;;;;;;10.97;100.00;99161.16;10583032;28;20034;-75
2023/10/18 22:51:44;;;;;;;0.65;0.65;;;;;;;11.05;100.00;99168.91;10581672;28;20046;-75
2023/10/18 23:01:48;;;;;;;0.40;0.40;;;;;;;11.17;100.00;99143.38;10580606;28;20502;-76
2023/10/18 23:06:49;;;;;;;0.30;0.30;;;;;;;11.26;100.00;99138.38;10580085;28;20114;-75
2023/10/18 23:11:51;;;;;;;1.85;1.83;;;;;;;11.35;100.00;99136.91;10580951;28;20043;-76
2023/10/18 23:38:02;;;;;;;1.27;1.27;;;;;;;11.86;100.00;99120.63;10578638;28;20056;-75
2023/10/18 23:43:32;;;;;;;0.82;0.82;;;;;;;12.02;100.00;99119.78;10579775;28;20545;-75
2023/10/18 23:49:04;;;;;;;0.77;0.77;;;;;;;12.15;100.00;99106.91;10579369;28;20097;-74
2023/10/18 23:53:58;;;;;;;1.58;1.52;;;;;;;12.21;100.00;99111.34;10578511;28;20043;-75
2023/10/18 23:59:00;;;;;;;2.15;2.05;;;;;;;12.37;100.00;99115.88;10579524;28;20377;-75
